Banning, CA

1:03 PM PST on February 01, 2015 (GMT -0800)
Banning Equestrian Estates | Change Station
CLOSE
Current Station
Personal Weather Station
Location: Banning, CA
Elevation: 2516 ft
Nearby Weather Stations

Elev 2516 ft 33.94 °N, 116.89 °W | Updated 37 seconds ago

Clear
Clear
68.9 °F
Feels Like 68.9 °F
N
2.7
Wind Variable Wind from North

Today
High -- | Low -- °F
--% Chance of Precip.
Yesterday
High -- | Low -- °F
Precip. -- in
6:44 AM 5:18 PM
Waxing Gibbous, 96% visible
Pressure 30.07 in
Visibility 10.0 miles
Clouds Clear
Dew Point 37 °F
Humidity 31%
Rainfall 0.00 in
Snow Depth Not available.
UV 5 out of 12
Pollen 1.60 out of 12
Air Quality Not available.
Flu Activity Not available.
METAR KRIV 012058Z AUTO 33008KT 10SM CLR 22/05 A3008 RMK AO2 SLP182 T02170046 58015

More Conditions Fewer Conditions

Pressure 30.07 in
Visibility 10.0 miles
Clouds Clear
Dew Point 37 °F
Humidity 31%
Rainfall 0.00 in
Snow Depth Not available.
UV 5 out of 12
Pollen 1.60 out of 12
Air Quality Not available.
Flu Activity Not available.
METAR KRIV 012058Z AUTO 33008KT 10SM CLR 22/05 A3008 RMK AO2 SLP182 T02170046 58015

More Conditions Fewer Conditions

10-Day Weather Forecast

Almanac

Astronomy

Feb. 01, 2015 Rise Set
Actual Time
Civil Twilight
Nautical Twilight
Astronomical Twilight
Moon
Length of Visible Light
Length of Day
Tomorrow will be .
, % of the Moon is Illuminated

Today's Extremes

State Highs State Lows

Community

WunderPhotos

Upload Photos

1,792,529 photos uploaded!

WunderBlogs® & News

Nearby

Air Quality

  Air Quality AQ Index Pollutant
Not available.

Snow Depth

Station Depth Elevation

Earthquake Activity

City Distance Mag. Time & Date
Minimum magnitude displayed is 2.5.

Coastal Water Temperatures

Place Temperature

Nearby Weather Stations